Time;durP1;ratioP1;P1;durP2;ratioP2;P2;SDS_P1;SDS_P2;PMS_P1;PMS_P2;Temp;Humidity;BMP_temperature;BMP_pressure;BME280_temperature;BME280_humidity;BME280_pressure;Samples;Min_cycle;Max_cycle;Signal;HPM_P1;HPM_P2
2022/01/09 00:00:11;;;;;;;8.20;6.17;;;7.90;99.90;;;;;;5050511;28;20463;-74
2022/01/09 00:02:38;;;;;;;12.43;7.43;;;8.00;99.90;;;;;;5050463;28;20905;-72
2022/01/09 00:05:06;;;;;;;9.50;6.40;;;7.90;99.90;;;;;;5050312;28;20468;-73
2022/01/09 00:07:33;;;;;;;13.17;7.93;;;8.00;99.90;;;;;;5050011;28;20443;-74
2022/01/09 00:10:00;;;;;;;11.83;7.90;;;8.00;99.90;;;;;;5050331;28;20525;-71
2022/01/09 00:12:27;;;;;;;14.97;8.73;;;8.00;99.90;;;;;;5049783;28;20898;-75
2022/01/09 00:14:55;;;;;;;12.13;8.30;;;7.90;99.90;;;;;;5050327;28;20513;-74
2022/01/09 00:17:22;;;;;;;14.13;8.73;;;7.90;99.90;;;;;;5049966;28;20496;-74
2022/01/09 00:19:49;;;;;;;11.93;8.83;;;7.90;99.90;;;;;;5049841;28;20985;-71
2022/01/09 00:22:20;;;;;;;13.67;9.27;;;7.70;99.90;;;;;;5051485;28;20463;-73
2022/01/09 00:24:47;;;;;;;12.13;9.70;;;7.70;99.90;;;;;;5053289;28;20456;-73
2022/01/09 00:27:14;;;;;;;15.27;10.40;;;7.60;99.90;;;;;;5050866;28;20518;-73
2022/01/09 00:29:42;;;;;;;16.87;10.20;;;7.60;99.90;;;;;;5051863;28;20487;-72
2022/01/09 00:32:10;;;;;;;14.33;9.73;;;7.40;99.90;;;;;;5048728;28;20449;-74
2022/01/09 00:34:37;;;;;;;12.90;9.20;;;7.10;99.90;;;;;;5049933;28;20490;-71
2022/01/09 00:37:05;;;;;;;10.80;9.27;;;7.10;99.90;;;;;;5049689;28;20613;-72
2022/01/09 00:39:32;;;;;;;13.50;8.40;;;7.30;99.90;;;;;;5049767;28;20471;-72
2022/01/09 00:41:59;;;;;;;12.37;8.37;;;7.50;99.90;;;;;;5049912;28;20495;-72
2022/01/09 00:44:26;;;;;;;12.10;7.97;;;7.70;99.90;;;;;;5049423;28;20452;-71
2022/01/09 00:46:56;;;;;;;12.23;7.63;;;7.80;99.90;;;;;;5049507;28;20506;-71
2022/01/09 00:49:25;;;;;;;12.87;7.93;;;8.00;99.90;;;;;;5049608;28;20476;-74
2022/01/09 00:51:52;;;;;;;13.67;7.87;;;8.00;99.90;;;;;;5049877;28;20502;-71
2022/01/09 00:54:19;;;;;;;12.77;7.47;;;7.90;99.90;;;;;;5049238;28;20497;-72
2022/01/09 00:56:46;;;;;;;11.13;6.90;;;7.90;99.90;;;;;;5049230;28;20947;-72
2022/01/09 00:59:13;;;;;;;12.00;6.43;;;8.10;99.90;;;;;;5049381;28;20477;-71
2022/01/09 01:01:40;;;;;;;9.20;6.40;;;8.20;99.90;;;;;;5049148;28;20456;-69
2022/01/09 01:04:07;;;;;;;11.23;6.33;;;8.20;99.90;;;;;;5049446;28;20457;-70
2022/01/09 01:06:36;;;;;;;9.23;6.20;;;8.00;99.90;;;;;;5049495;28;20513;-72
2022/01/09 01:09:03;;;;;;;17.07;10.87;;;8.00;99.90;;;;;;5049403;28;20476;-72
2022/01/09 01:11:30;;;;;;;18.10;10.87;;;8.00;99.90;;;;;;5049194;28;20985;-72
2022/01/09 01:13:57;;;;;;;19.87;11.57;;;7.70;99.90;;;;;;5049238;28;20457;-71
2022/01/09 01:16:24;;;;;;;20.27;11.70;;;7.70;99.90;;;;;;5049466;28;20806;-72
2022/01/09 01:18:54;;;;;;;15.90;11.10;;;7.70;99.90;;;;;;5051065;28;20626;-71
2022/01/09 01:21:23;;;;;;;15.23;11.50;;;7.70;99.90;;;;;;5053562;28;20468;-73
2022/01/09 01:23:53;;;;;;;14.83;11.43;;;7.60;99.90;;;;;;5053663;28;20498;-71
2022/01/09 01:26:20;;;;;;;16.97;11.63;;;7.50;99.90;;;;;;5053408;28;20455;-72
2022/01/09 01:28:47;;;;;;;18.80;12.03;;;7.70;99.90;;;;;;5053344;28;20479;-72
2022/01/09 01:31:14;;;;;;;19.23;13.07;;;7.60;99.90;;;;;;5053061;28;20447;-71
2022/01/09 01:33:41;;;;;;;16.87;11.50;;;7.50;99.90;;;;;;5053209;28;20474;-70
2022/01/09 01:36:08;;;;;;;19.13;12.40;;;7.50;99.90;;;;;;5053286;28;20447;-71
2022/01/09 01:38:35;;;;;;;18.57;12.93;;;7.60;99.90;;;;;;5052793;28;20487;-73
2022/01/09 01:41:04;;;;;;;18.80;13.20;;;7.60;99.90;;;;;;5053088;28;20458;-73
2022/01/09 01:43:31;;;;;;;17.03;12.70;;;7.50;99.90;;;;;;5053033;28;20447;-72
2022/01/09 01:46:02;;;;;;;19.37;13.20;;;7.50;99.90;;;;;;5053163;28;20462;-71
2022/01/09 01:48:29;;;;;;;19.63;11.57;;;7.40;99.90;;;;;;5052955;28;20590;-72
2022/01/09 01:50:56;;;;;;;17.90;11.83;;;7.30;99.90;;;;;;5053154;28;20455;-72
2022/01/09 01:53:25;;;;;;;15.90;12.03;;;7.50;99.90;;;;;;5052768;28;20479;-72
2022/01/09 01:55:55;;;;;;;16.20;11.40;;;7.50;99.90;;;;;;5052666;28;20459;-72
2022/01/09 01:58:26;;;;;;;17.83;11.40;;;7.60;99.90;;;;;;5052636;28;20491;-72
2022/01/09 02:00:53;;;;;;;17.10;12.10;;;7.50;99.90;;;;;;5052920;28;20464;-71
2022/01/09 02:03:20;;;;;;;19.80;13.10;;;7.60;99.90;;;;;;5052140;28;20483;-72
2022/01/09 02:05:48;;;;;;;18.13;12.90;;;7.70;99.90;;;;;;5052368;28;20535;-72
2022/01/09 02:08:15;;;;;;;17.57;10.90;;;7.50;99.90;;;;;;5052454;28;21037;-72
2022/01/09 02:10:45;;;;;;;16.70;11.00;;;7.50;99.90;;;;;;5052751;28;20456;-73
2022/01/09 02:13:12;;;;;;;14.83;10.70;;;7.60;99.90;;;;;;5052149;28;20950;-71
2022/01/09 02:15:44;;;;;;;17.43;11.27;;;7.80;99.90;;;;;;5052441;28;20456;-71
2022/01/09 02:18:14;;;;;;;16.50;11.30;;;7.80;99.90;;;;;;5052125;28;20582;-72
2022/01/09 02:20:42;;;;;;;19.03;11.50;;;7.70;99.90;;;;;;5052147;28;20452;-72
2022/01/09 02:23:11;;;;;;;17.30;11.67;;;7.60;99.90;;;;;;5052325;28;20936;-73
2022/01/09 02:25:40;;;;;;;14.97;9.93;;;7.30;99.90;;;;;;5052296;28;20466;-73
2022/01/09 02:28:08;;;;;;;16.13;11.50;;;7.30;99.90;;;;;;5051730;28;20485;-73
2022/01/09 02:30:36;;;;;;;15.70;11.07;;;7.50;99.90;;;;;;5051297;28;20452;-72
2022/01/09 02:33:05;;;;;;;17.57;12.33;;;7.40;99.90;;;;;;5052036;28;20451;-72
2022/01/09 02:35:33;;;;;;;17.23;11.50;;;7.40;99.90;;;;;;5051965;28;20447;-72
2022/01/09 02:38:04;;;;;;;13.20;9.93;;;7.40;99.90;;;;;;5051898;28;20499;-71
2022/01/09 02:40:31;;;;;;;15.03;10.80;;;7.20;99.90;;;;;;5052243;28;20864;-72
2022/01/09 02:42:59;;;;;;;13.37;10.47;;;6.80;99.90;;;;;;5052105;28;20463;-71
2022/01/09 02:45:27;;;;;;;16.60;12.70;;;6.70;99.90;;;;;;5051700;28;20866;-72
2022/01/09 02:47:57;;;;;;;13.73;10.73;;;6.90;99.90;;;;;;5051623;28;20459;-70
2022/01/09 02:50:35;;;;;;;14.83;11.07;;;7.10;99.90;;;;;;5051997;28;20458;-72
2022/01/09 02:53:15;;;;;;;16.30;11.07;;;7.30;99.90;;;;;;5050266;28;20537;-72
2022/01/09 02:55:43;;;;;;;13.40;9.50;;;7.40;99.90;;;;;;5051610;28;20451;-70
2022/01/09 02:58:10;;;;;;;14.43;9.50;;;7.20;99.90;;;;;;5051423;28;20957;-71
2022/01/09 03:00:40;;;;;;;15.20;9.17;;;7.10;99.90;;;;;;5051574;28;20453;-71
2022/01/09 03:03:07;;;;;;;13.37;8.93;;;6.90;99.90;;;;;;5051563;28;20450;-71
2022/01/09 03:05:35;;;;;;;13.33;9.13;;;7.00;99.90;;;;;;5051715;28;20542;-72
2022/01/09 03:08:02;;;;;;;12.90;8.77;;;7.30;99.90;;;;;;5051318;28;20479;-72
2022/01/09 03:10:30;;;;;;;12.20;8.97;;;7.50;99.90;;;;;;5051219;28;20462;-73
2022/01/09 03:12:59;;;;;;;14.17;9.47;;;7.70;99.90;;;;;;5051612;28;20459;-74
2022/01/09 03:15:26;;;;;;;12.37;8.97;;;7.70;99.90;;;;;;5051549;28;20580;-72
2022/01/09 03:17:54;;;;;;;13.73;9.33;;;7.60;99.90;;;;;;5051205;28;20540;-72
2022/01/09 03:20:23;;;;;;;14.63;9.87;;;7.60;99.90;;;;;;5051378;28;20876;-73
2022/01/09 03:22:51;;;;;;;11.93;8.73;;;7.60;99.90;;;;;;5051346;28;20998;-72
2022/01/09 03:25:18;;;;;;;15.23;9.53;;;7.80;99.90;;;;;;5051060;28;20503;-73
2022/01/09 03:27:49;;;;;;;16.00;9.20;;;7.90;99.90;;;;;;5050685;28;20457;-73
2022/01/09 03:30:16;;;;;;;11.43;8.80;;;8.00;99.90;;;;;;5051333;28;20488;-73
2022/01/09 03:32:44;;;;;;;13.33;7.93;;;7.90;99.90;;;;;;5051207;28;20480;-72
2022/01/09 03:35:13;;;;;;;11.63;8.67;;;7.80;99.90;;;;;;5051153;28;20884;-71
2022/01/09 03:37:41;;;;;;;14.43;9.50;;;7.90;99.90;;;;;;5050388;28;20883;-72
2022/01/09 03:40:13;;;;;;;13.70;9.00;;;7.90;99.90;;;;;;5050656;28;20499;-73
2022/01/09 03:42:40;;;;;;;12.07;8.50;;;8.00;99.90;;;;;;5050076;28;20463;-73
2022/01/09 03:45:10;;;;;;;12.20;8.70;;;8.00;99.90;;;;;;5050782;28;20945;-73
2022/01/09 03:47:38;;;;;;;15.80;9.73;;;7.90;99.90;;;;;;5049417;28;20451;-72
2022/01/09 03:50:05;;;;;;;12.57;8.20;;;7.90;99.90;;;;;;5051083;28;20877;-73
2022/01/09 03:52:34;;;;;;;10.23;7.87;;;8.00;99.90;;;;;;5050591;28;20453;-73
2022/01/09 03:55:01;;;;;;;13.20;9.07;;;8.00;99.90;;;;;;5050409;28;20535;-74
2022/01/09 03:57:28;;;;;;;14.87;10.30;;;8.00;99.90;;;;;;5050515;28;20542;-72
2022/01/09 03:59:55;;;;;;;13.20;9.10;;;8.00;99.90;;;;;;5050721;28;20549;-74
2022/01/09 04:02:23;;;;;;;10.97;8.60;;;8.00;99.90;;;;;;5050476;28;20859;-72
2022/01/09 04:04:50;;;;;;;15.60;9.63;;;8.00;99.90;;;;;;5050463;28;20858;-73
2022/01/09 04:07:18;;;;;;;15.00;10.30;;;7.90;99.90;;;;;;5050261;28;20484;-72
2022/01/09 04:09:47;;;;;;;14.20;11.13;;;7.70;99.90;;;;;;5049058;28;20454;-72
2022/01/09 04:12:17;;;;;;;15.63;10.70;;;7.80;99.90;;;;;;5049916;28;20911;-73
2022/01/09 04:14:46;;;;;;;15.00;10.33;;;7.70;99.90;;;;;;5050395;28;20495;-71
2022/01/09 04:17:20;;;;;;;17.53;10.20;;;7.60;99.90;;;;;;5050033;28;20473;-73
2022/01/09 04:19:49;;;;;;;14.27;10.80;;;7.60;99.90;;;;;;5050034;28;20908;-72
2022/01/09 04:22:16;;;;;;;17.13;10.00;;;7.60;99.90;;;;;;5050065;28;20486;-72
2022/01/09 04:24:44;;;;;;;14.40;9.87;;;7.70;99.90;;;;;;5050086;28;20457;-72
2022/01/09 04:27:11;;;;;;;15.03;10.00;;;7.70;99.90;;;;;;5049830;28;20480;-70
2022/01/09 04:29:38;;;;;;;15.03;9.90;;;7.80;99.90;;;;;;5049947;28;20460;-72
2022/01/09 04:32:06;;;;;;;15.33;11.23;;;7.80;99.90;;;;;;5049864;28;20460;-73
2022/01/09 04:34:33;;;;;;;13.73;9.77;;;7.80;99.90;;;;;;5049811;28;20506;-72
2022/01/09 04:37:02;;;;;;;18.63;11.40;;;7.80;99.90;;;;;;5049597;28;20527;-72
2022/01/09 04:39:29;;;;;;;15.07;11.37;;;7.70;99.90;;;;;;5049804;28;20588;-72
2022/01/09 04:41:56;;;;;;;17.17;11.47;;;7.70;99.90;;;;;;5049924;28;20479;-71
2022/01/09 04:44:24;;;;;;;16.07;10.10;;;7.60;99.90;;;;;;5049771;28;20871;-73
2022/01/09 04:46:57;;;;;;;17.20;11.50;;;7.60;99.90;;;;;;5049524;28;20483;-72
2022/01/09 04:49:27;;;;;;;15.13;10.10;;;7.70;99.90;;;;;;5049703;28;20941;-72
2022/01/09 04:51:56;;;;;;;17.70;10.90;;;7.70;99.90;;;;;;5049601;28;20461;-71
2022/01/09 04:54:24;;;;;;;15.67;10.90;;;7.70;99.90;;;;;;5049128;28;20855;-72
2022/01/09 04:56:51;;;;;;;15.10;11.03;;;7.80;99.90;;;;;;5049505;28;20449;-73
2022/01/09 04:59:18;;;;;;;15.80;9.83;;;7.70;99.90;;;;;;5049190;28;20969;-71
2022/01/09 05:01:45;;;;;;;18.23;10.00;;;7.80;99.90;;;;;;5049402;28;20457;-70
2022/01/09 05:04:12;;;;;;;15.20;9.70;;;7.80;99.90;;;;;;5049433;28;20460;-73
2022/01/09 05:06:39;;;;;;;13.50;9.43;;;7.80;99.90;;;;;;5049505;28;20469;-71
2022/01/09 05:09:07;;;;;;;13.70;9.90;;;7.70;99.90;;;;;;5048954;28;20480;-70
2022/01/09 05:11:35;;;;;;;13.17;9.03;;;7.70;99.90;;;;;;5048140;28;20461;-72
2022/01/09 05:14:02;;;;;;;17.13;10.07;;;7.80;99.90;;;;;;5049300;28;20460;-73
2022/01/09 05:16:30;;;;;;;13.50;8.60;;;7.80;99.90;;;;;;5049069;28;20552;-73
2022/01/09 05:19:02;;;;;;;12.17;8.60;;;7.80;99.90;;;;;;5049441;28;20487;-73
2022/01/09 05:21:30;;;;;;;12.77;8.30;;;7.50;99.90;;;;;;5049574;28;20467;-72
2022/01/09 05:23:57;;;;;;;13.37;9.00;;;7.70;99.90;;;;;;5049259;28;20461;-72
2022/01/09 05:26:24;;;;;;;13.50;9.23;;;7.90;99.90;;;;;;5049154;28;21021;-70
2022/01/09 05:28:52;;;;;;;12.47;7.80;;;8.00;99.90;;;;;;5049001;28;20480;-70
2022/01/09 05:31:19;;;;;;;12.17;7.60;;;8.00;99.90;;;;;;5049325;28;20458;-72
2022/01/09 05:33:47;;;;;;;13.90;9.67;;;8.00;99.90;;;;;;5049292;28;20462;-70
2022/01/09 05:36:14;;;;;;;18.00;8.93;;;8.10;99.90;;;;;;5049097;28;20456;-71
2022/01/09 05:38:41;;;;;;;12.27;7.77;;;8.20;99.90;;;;;;5048788;28;20546;-73
2022/01/09 05:41:08;;;;;;;10.40;7.63;;;8.20;99.90;;;;;;5049057;28;20518;-70
2022/01/09 05:43:36;;;;;;;11.23;8.23;;;8.00;99.90;;;;;;5049222;28;20467;-71
2022/01/09 05:46:04;;;;;;;12.03;8.00;;;7.90;99.90;;;;;;5049255;28;20948;-73
2022/01/09 05:48:31;;;;;;;10.97;7.50;;;8.10;99.90;;;;;;5049163;28;20989;-74
2022/01/09 05:50:58;;;;;;;11.40;7.50;;;8.20;99.90;;;;;;5049024;28;20460;-73
2022/01/09 05:53:25;;;;;;;9.67;6.70;;;8.30;99.90;;;;;;5048755;28;20553;-72
2022/01/09 05:55:52;;;;;;;12.90;7.50;;;8.30;99.90;;;;;;5048878;28;20517;-71
2022/01/09 05:58:19;;;;;;;10.90;6.83;;;8.20;99.90;;;;;;5049110;28;20523;-73
2022/01/09 06:00:46;;;;;;;10.50;7.43;;;8.10;99.90;;;;;;5049270;28;20454;-72
2022/01/09 06:03:15;;;;;;;15.63;8.53;;;8.10;99.90;;;;;;5049319;28;20461;-74
2022/01/09 06:05:42;;;;;;;13.63;8.73;;;8.10;99.90;;;;;;5051965;28;20854;-73
2022/01/09 06:08:09;;;;;;;13.27;9.90;;;8.10;99.90;;;;;;5052359;28;20476;-72
2022/01/09 06:10:36;;;;;;;15.20;9.20;;;8.00;99.90;;;;;;5052588;28;20501;-71
2022/01/09 06:13:03;;;;;;;12.90;8.80;;;8.00;99.90;;;;;;5052768;28;20522;-72
2022/01/09 06:15:30;;;;;;;14.73;9.60;;;7.70;99.90;;;;;;5052507;28;20530;-73
2022/01/09 06:17:57;;;;;;;13.30;9.40;;;7.40;99.90;;;;;;5052243;28;20479;-73
2022/01/09 06:20:26;;;;;;;15.93;9.47;;;7.60;99.90;;;;;;5052312;28;20922;-73
2022/01/09 06:22:53;;;;;;;15.00;8.93;;;7.70;99.90;;;;;;5052517;28;20455;-72
2022/01/09 06:25:21;;;;;;;13.43;9.37;;;7.80;99.90;;;;;;5052458;28;20842;-73
2022/01/09 06:27:48;;;;;;;13.07;9.20;;;7.80;99.90;;;;;;5052416;28;20475;-73
2022/01/09 06:30:16;;;;;;;15.70;9.17;;;7.80;99.90;;;;;;5052252;28;20998;-73
2022/01/09 06:32:43;;;;;;;16.50;10.90;;;7.90;99.90;;;;;;5052201;28;20551;-71
2022/01/09 06:35:11;;;;;;;19.20;12.07;;;7.80;99.90;;;;;;5052143;28;20455;-71
2022/01/09 06:37:40;;;;;;;18.00;12.00;;;7.80;99.90;;;;;;5051729;28;20452;-73
2022/01/09 06:40:09;;;;;;;17.40;12.23;;;7.80;99.90;;;;;;5050597;28;20495;-72
2022/01/09 06:42:36;;;;;;;16.43;10.80;;;7.90;99.90;;;;;;5051585;28;20500;-72
2022/01/09 06:45:03;;;;;;;15.70;10.90;;;7.90;99.90;;;;;;5051898;28;20463;-72
2022/01/09 06:47:30;;;;;;;16.33;10.90;;;8.10;99.90;;;;;;5051592;28;20794;-72
2022/01/09 06:49:58;;;;;;;13.03;10.20;;;8.10;99.90;;;;;;5051794;28;20469;-73
2022/01/09 06:52:26;;;;;;;12.97;9.77;;;8.00;99.90;;;;;;5051851;28;20456;-71
2022/01/09 06:54:54;;;;;;;12.60;9.50;;;8.00;99.90;;;;;;5051667;28;20495;-72
2022/01/09 06:57:21;;;;;;;15.47;10.83;;;8.10;99.90;;;;;;5051877;28;20468;-72
2022/01/09 06:59:48;;;;;;;14.77;10.70;;;8.20;99.90;;;;;;5051320;28;20830;-72
2022/01/09 07:02:15;;;;;;;15.10;10.90;;;8.10;99.90;;;;;;5051708;28;20457;-73
2022/01/09 07:04:42;;;;;;;11.93;8.73;;;8.20;99.90;;;;;;5051319;28;20482;-72
2022/01/09 07:07:09;;;;;;;17.10;11.20;;;8.30;99.90;;;;;;5051687;28;20994;-74
2022/01/09 07:09:36;;;;;;;17.03;11.00;;;8.30;99.90;;;;;;5051662;28;20933;-74
2022/01/09 07:12:07;;;;;;;16.50;10.23;;;8.30;99.90;;;;;;5051476;28;20464;-73
2022/01/09 07:14:34;;;;;;;13.60;10.47;;;8.30;99.90;;;;;;5051388;28;21043;-73
2022/01/09 07:17:01;;;;;;;15.13;11.37;;;8.30;99.90;;;;;;5051414;28;20461;-72
2022/01/09 07:19:28;;;;;;;16.50;10.47;;;8.40;99.90;;;;;;5051188;28;20977;-73
2022/01/09 07:21:55;;;;;;;18.60;11.13;;;8.40;99.90;;;;;;5050844;28;20851;-73
2022/01/09 07:24:22;;;;;;;15.77;11.57;;;8.60;99.90;;;;;;5051238;28;20980;-75
2022/01/09 07:26:49;;;;;;;19.63;10.57;;;8.80;99.90;;;;;;5050851;28;20450;-70
2022/01/09 07:29:18;;;;;;;12.40;8.17;;;8.80;99.90;;;;;;5051196;28;20449;-76
2022/01/09 07:31:45;;;;;;;13.60;9.10;;;9.00;99.90;;;;;;5051000;28;20458;-74
2022/01/09 07:34:12;;;;;;;11.63;8.43;;;9.10;99.90;;;;;;5050957;28;20942;-75
2022/01/09 07:36:39;;;;;;;9.97;7.10;;;9.10;99.90;;;;;;5051051;28;20461;-73
2022/01/09 07:39:06;;;;;;;13.20;7.80;;;9.10;99.90;;;;;;5051259;28;20493;-76
2022/01/09 07:41:33;;;;;;;12.30;9.00;;;9.00;99.90;;;;;;5051226;28;20453;-74
2022/01/09 07:44:00;;;;;;;13.10;8.13;;;8.80;99.90;;;;;;5050659;28;20460;-73
2022/01/09 07:46:28;;;;;;;10.17;7.17;;;8.90;99.90;;;;;;5050763;28;20833;-74
2022/01/09 07:48:56;;;;;;;11.17;7.73;;;9.20;99.90;;;;;;5050808;28;20454;-72
2022/01/09 07:51:23;;;;;;;15.13;9.80;;;9.40;99.90;;;;;;5050943;28;20993;-73
2022/01/09 07:53:50;;;;;;;13.80;8.00;;;9.70;99.90;;;;;;5050110;28;21043;-73
2022/01/09 07:56:17;;;;;;;10.93;7.47;;;9.90;99.90;;;;;;5050294;28;20523;-73
2022/01/09 07:58:44;;;;;;;10.80;7.63;;;10.00;99.90;;;;;;5050626;28;20874;-78
2022/01/09 08:01:11;;;;;;;13.07;7.40;;;10.10;99.90;;;;;;5050640;28;20946;-77
2022/01/09 08:03:39;;;;;;;10.57;7.33;;;10.20;99.90;;;;;;5050545;28;20516;-76
2022/01/09 08:06:06;;;;;;;10.13;5.97;;;10.50;99.90;;;;;;5050586;28;20450;-80
2022/01/09 08:08:34;;;;;;;8.57;6.30;;;10.60;99.90;;;;;;5050638;28;20474;-80
2022/01/09 08:11:02;;;;;;;9.00;5.63;;;10.80;99.90;;;;;;5050672;28;20446;-73
2022/01/09 08:13:30;;;;;;;8.43;5.07;;;11.00;99.90;;;;;;5050270;28;20515;-80
2022/01/09 08:15:57;;;;;;;9.10;5.83;;;11.20;99.90;;;;;;5050565;28;20970;-79
2022/01/09 08:18:24;;;;;;;6.33;4.37;;;11.30;99.90;;;;;;5050306;28;20477;-74
2022/01/09 08:20:53;;;;;;;6.67;4.33;;;11.30;99.90;;;;;;5050292;28;20977;-80
2022/01/09 08:23:20;;;;;;;10.30;4.40;;;11.40;99.90;;;;;;5050442;28;20923;-80
2022/01/09 08:25:47;;;;;;;8.17;4.57;;;11.50;99.90;;;;;;5050056;28;20889;-73
2022/01/09 08:28:14;;;;;;;7.17;4.43;;;11.70;99.90;;;;;;5049433;28;20488;-78
2022/01/09 08:30:41;;;;;;;9.60;5.13;;;11.90;99.90;;;;;;5050391;28;20503;-81
2022/01/09 08:33:08;;;;;;;9.03;6.30;;;12.00;99.90;;;;;;5050393;28;20463;-79
2022/01/09 08:35:36;;;;;;;9.23;5.30;;;12.10;99.90;;;;;;5050097;28;20454;-82
2022/01/09 08:38:04;;;;;;;9.20;6.40;;;12.20;99.90;;;;;;5050110;28;20482;-78
2022/01/09 08:40:31;;;;;;;11.00;6.47;;;12.40;99.90;;;;;;5049543;28;20498;-76
2022/01/09 08:42:59;;;;;;;12.10;7.03;;;12.50;99.90;;;;;;5049845;28;20453;-76
2022/01/09 08:45:26;;;;;;;11.60;7.60;;;12.40;99.90;;;;;;5049958;28;20454;-75
2022/01/09 08:47:53;;;;;;;9.70;6.37;;;12.30;99.90;;;;;;5053573;28;20820;-76
2022/01/09 08:50:20;;;;;;;10.70;7.37;;;12.00;99.90;;;;;;5057872;28;20445;-72
2022/01/09 08:52:47;;;;;;;10.50;7.20;;;11.70;99.90;;;;;;5051789;28;20805;-73
2022/01/09 08:55:16;;;;;;;10.20;7.00;;;11.80;99.90;;;;;;5050406;28;20454;-75
2022/01/09 08:57:43;;;;;;;13.33;7.87;;;11.70;99.90;;;;;;5049693;28;20459;-74
2022/01/09 09:00:11;;;;;;;10.53;6.93;;;11.50;99.90;;;;;;5049484;28;20493;-73
2022/01/09 09:02:41;;;;;;;12.33;7.20;;;11.50;99.90;;;;;;5049540;28;20541;-73
2022/01/09 09:05:08;;;;;;;11.13;7.30;;;11.60;99.90;;;;;;5049320;28;20985;-75
2022/01/09 09:10:20;;;;;;;15.70;9.53;;;11.50;99.90;;;;;;5045612;28;20450;-74
2022/01/09 09:12:47;;;;;;;13.83;9.33;;;11.40;99.90;;;;;;5049607;28;20450;-75
2022/01/09 09:15:14;;;;;;;14.57;10.10;;;11.40;99.90;;;;;;5049469;28;20592;-73
2022/01/09 09:17:41;;;;;;;16.43;10.30;;;11.40;99.90;;;;;;5049223;28;20450;-76
2022/01/09 09:20:09;;;;;;;14.13;9.20;;;11.40;99.90;;;;;;5049194;28;21067;-74
2022/01/09 09:22:37;;;;;;;11.67;8.00;;;11.40;99.90;;;;;;5049167;28;20533;-73
2022/01/09 09:25:05;;;;;;;13.33;8.03;;;11.30;99.90;;;;;;5049603;28;21118;-73
2022/01/09 09:27:33;;;;;;;9.50;6.30;;;11.40;99.90;;;;;;5049210;28;20469;-74
2022/01/09 09:30:02;;;;;;;8.20;4.20;;;11.60;99.90;;;;;;5049160;28;20474;-72
2022/01/09 09:32:29;;;;;;;9.47;5.40;;;11.60;99.90;;;;;;5049333;28;20468;-74
2022/01/09 09:34:57;;;;;;;8.30;4.13;;;11.50;99.90;;;;;;5049259;28;20458;-75
2022/01/09 09:37:26;;;;;;;8.50;4.77;;;11.30;99.90;;;;;;5048842;28;20457;-73
2022/01/09 09:39:53;;;;;;;7.33;4.50;;;11.40;99.90;;;;;;5050917;28;20497;-74
2022/01/09 09:42:20;;;;;;;9.87;5.10;;;11.70;99.90;;;;;;5052913;28;20506;-73
2022/01/09 09:44:49;;;;;;;8.10;5.03;;;12.10;99.90;;;;;;5052939;28;20453;-74
2022/01/09 09:47:19;;;;;;;9.00;5.70;;;12.50;99.90;;;;;;5052996;28;20454;-74
2022/01/09 09:49:47;;;;;;;9.00;6.00;;;12.80;99.90;;;;;;5052985;28;20561;-74
2022/01/09 09:52:17;;;;;;;8.97;5.40;;;12.70;99.90;;;;;;5053081;28;20511;-73
2022/01/09 09:54:44;;;;;;;7.87;4.97;;;12.70;99.90;;;;;;5052500;28;20485;-74
2022/01/09 09:57:11;;;;;;;10.13;5.70;;;12.80;99.90;;;;;;5052762;28;20461;-73
2022/01/09 09:59:39;;;;;;;7.73;4.67;;;12.80;99.90;;;;;;5052705;28;20546;-73
2022/01/09 10:02:11;;;;;;;11.20;4.80;;;12.80;99.90;;;;;;5052862;28;20454;-73
2022/01/09 10:04:38;;;;;;;8.53;4.70;;;12.80;99.90;;;;;;5051486;28;20542;-74
2022/01/09 10:07:05;;;;;;;9.43;4.97;;;12.90;99.90;;;;;;5052805;28;20442;-74
2022/01/09 10:09:32;;;;;;;9.07;5.30;;;13.00;99.90;;;;;;5052315;28;20476;-74
2022/01/09 10:12:03;;;;;;;8.40;4.50;;;12.90;99.90;;;;;;5052592;28;20484;-74
2022/01/09 10:14:33;;;;;;;8.37;5.03;;;12.80;99.90;;;;;;5052526;28;20452;-74
2022/01/09 10:17:13;;;;;;;8.00;5.00;;;13.10;99.90;;;;;;5052717;28;20450;-76
2022/01/09 10:19:44;;;;;;;11.17;5.90;;;13.20;99.90;;;;;;5052608;28;20465;-74
2022/01/09 10:22:39;;;;;;;10.67;5.83;;;13.10;99.90;;;;;;5052279;28;20507;-72
2022/01/09 10:25:30;;;;;;;16.60;5.73;;;13.00;99.90;;;;;;5052190;28;20531;-73
2022/01/09 10:28:00;;;;;;;11.17;5.40;;;12.60;99.90;;;;;;5046677;28;20888;-74
2022/01/09 10:30:29;;;;;;;10.77;6.03;;;12.20;99.90;;;;;;5051912;28;20442;-74
2022/01/09 10:33:01;;;;;;;8.43;5.53;;;12.10;99.90;;;;;;5052237;28;20450;-74
2022/01/09 10:35:29;;;;;;;9.30;5.27;;;12.20;99.90;;;;;;5052292;28;20429;-73
2022/01/09 10:38:19;;;;;;;8.80;5.43;;;12.30;99.90;;;;;;5052066;28;20451;-74
2022/01/09 10:40:52;;;;;;;9.40;5.30;;;12.20;99.90;;;;;;5052013;28;20584;-73
2022/01/09 10:43:20;;;;;;;8.73;6.23;;;12.30;99.90;;;;;;5051908;28;20774;-74
2022/01/09 10:45:50;;;;;;;8.13;4.67;;;12.20;99.90;;;;;;5052260;28;20454;-74
2022/01/09 10:48:21;;;;;;;9.00;5.70;;;12.10;99.90;;;;;;5052345;28;20915;-74
2022/01/09 10:50:50;;;;;;;11.83;5.07;;;12.10;99.90;;;;;;5051607;28;20864;-74
2022/01/09 10:53:21;;;;;;;8.43;4.93;;;12.00;99.90;;;;;;5051778;28;20496;-73
2022/01/09 10:55:50;;;;;;;11.03;5.80;;;12.00;99.90;;;;;;5051804;28;20458;-74
2022/01/09 10:58:21;;;;;;;10.10;6.37;;;12.10;99.90;;;;;;5051547;28;20547;-75
2022/01/09 11:01:06;;;;;;;8.23;5.70;;;11.90;99.90;;;;;;5051385;28;21024;-73
2022/01/09 11:03:35;;;;;;;8.03;5.00;;;12.00;99.90;;;;;;5051268;28;20454;-73
2022/01/09 11:06:02;;;;;;;10.80;5.37;;;12.10;99.90;;;;;;5051596;28;20458;-74
2022/01/09 11:08:30;;;;;;;9.60;5.50;;;12.10;99.90;;;;;;5051291;28;20565;-74
2022/01/09 11:10:59;;;;;;;8.10;4.50;;;12.20;99.90;;;;;;5051718;28;20469;-74
2022/01/09 11:13:28;;;;;;;10.07;4.70;;;12.20;99.90;;;;;;5051578;28;20939;-74
2022/01/09 11:18:43;;;;;;;7.83;4.97;;;12.00;99.90;;;;;;5051097;28;20557;-74
2022/01/09 11:21:10;;;;;;;9.70;6.90;;;12.10;99.90;;;;;;5051279;28;20494;-75
2022/01/09 11:24:00;;;;;;;9.93;5.57;;;12.10;99.90;;;;;;5051543;28;20503;-78
2022/01/09 11:26:38;;;;;;;8.33;4.90;;;12.10;99.90;;;;;;5051425;28;20948;-77
2022/01/09 11:29:10;;;;;;;8.23;5.03;;;12.20;99.90;;;;;;5051594;28;20642;-79
2022/01/09 11:31:44;;;;;;;12.10;5.73;;;12.30;99.90;;;;;;5051563;28;20453;-77
2022/01/09 11:34:19;;;;;;;11.60;6.80;;;12.30;99.90;;;;;;5051955;28;20457;-74
2022/01/09 11:37:01;;;;;;;7.83;4.63;;;12.40;99.90;;;;;;5057199;28;20457;-77
2022/01/09 11:39:35;;;;;;;8.10;5.10;;;12.60;99.90;;;;;;5061907;28;20470;-74
2022/01/09 11:42:08;;;;;;;8.13;5.13;;;12.80;99.90;;;;;;5060343;28;20511;-76
2022/01/09 11:44:35;;;;;;;8.47;5.57;;;13.00;99.90;;;;;;5061166;28;20870;-75
2022/01/09 11:47:05;;;;;;;8.13;5.30;;;13.00;99.90;;;;;;5052805;28;20454;-76
2022/01/09 11:49:41;;;;;;;8.80;5.47;;;13.00;99.90;;;;;;5050971;28;20481;-76
2022/01/09 11:52:09;;;;;;;9.40;6.00;;;13.00;99.90;;;;;;5050898;28;21017;-75
2022/01/09 11:54:50;;;;;;;11.53;6.00;;;13.20;99.90;;;;;;5050844;28;20572;-78
2022/01/09 11:57:36;;;;;;;7.47;5.07;;;13.10;99.90;;;;;;5050946;28;20511;-76
2022/01/09 12:00:05;;;;;;;10.13;6.60;;;13.50;99.90;;;;;;5050609;28;20470;-78
2022/01/09 12:02:38;;;;;;;8.53;5.40;;;13.40;99.90;;;;;;5049997;28;20453;-78
2022/01/09 12:05:08;;;;;;;11.60;5.70;;;13.30;99.90;;;;;;5050563;28;20573;-74
2022/01/09 12:08:08;;;;;;;7.73;4.47;;;13.40;99.90;;;;;;5050434;28;20457;-77
2022/01/09 12:10:54;;;;;;;12.63;6.27;;;13.40;99.90;;;;;;5050600;28;20529;-76
2022/01/09 12:13:43;;;;;;;10.00;6.20;;;13.20;99.90;;;;;;5050594;28;20462;-67
2022/01/09 12:16:31;;;;;;;9.77;5.53;;;12.90;99.90;;;;;;5050092;28;20526;-74
2022/01/09 12:18:58;;;;;;;9.10;5.83;;;12.90;99.90;;;;;;5049832;28;20570;-80
2022/01/09 12:21:51;;;;;;;10.80;5.40;;;12.90;99.90;;;;;;5050147;28;20486;-78
2022/01/09 12:24:40;;;;;;;10.20;6.10;;;12.90;99.90;;;;;;5049994;28;20943;-75
2022/01/09 12:27:41;;;;;;;8.43;4.93;;;12.90;99.90;;;;;;5047561;28;21032;-80
2022/01/09 12:30:09;;;;;;;9.90;4.80;;;12.90;99.90;;;;;;5051028;28;20508;-79
2022/01/09 12:32:40;;;;;;;9.40;6.20;;;12.90;99.90;;;;;;5050369;28;20469;-80
2022/01/09 12:35:16;;;;;;;13.43;7.20;;;12.90;99.90;;;;;;5050403;28;20460;-82
2022/01/09 12:37:49;;;;;;;30.80;19.53;;;12.90;99.90;;;;;;5050003;28;20456;-80
2022/01/09 12:40:17;;;;;;;15.13;8.50;;;12.90;99.90;;;;;;5050056;28;20442;-81
2022/01/09 12:42:57;;;;;;;14.30;5.97;;;12.90;99.90;;;;;;5050194;28;20503;-79
2022/01/09 12:45:27;;;;;;;11.03;6.80;;;12.80;99.90;;;;;;5049549;28;20452;-82
2022/01/09 12:47:55;;;;;;;16.63;7.63;;;12.80;99.90;;;;;;5049929;28;20460;-78
2022/01/09 12:50:27;;;;;;;14.53;8.17;;;12.90;99.90;;;;;;5050879;28;20925;-76
2022/01/09 12:53:13;;;;;;;18.00;8.83;;;12.90;99.90;;;;;;5050501;28;20538;-80
2022/01/09 12:56:00;;;;;;;14.23;8.30;;;13.00;99.90;;;;;;5050472;28;20452;-83
2022/01/09 12:58:30;;;;;;;11.20;6.63;;;13.30;99.90;;;;;;5050203;28;20461;-82